createdAt,value
2018-08-25T00:02:05.169Z,17.93
2018-08-25T00:04:34.779Z,18.20
2018-08-25T00:07:04.065Z,18.90
2018-08-25T00:09:33.259Z,18.00
2018-08-25T00:12:02.356Z,18.10
2018-08-25T00:14:31.864Z,18.17
2018-08-25T00:17:00.943Z,17.53
2018-08-25T00:19:30.111Z,16.27
2018-08-25T00:21:59.492Z,17.90
2018-08-25T00:24:29.860Z,17.87
2018-08-25T00:26:59.253Z,17.10
2018-08-25T00:29:28.388Z,19.23
2018-08-25T00:31:57.419Z,17.33
2018-08-25T00:34:26.511Z,17.83
2018-08-25T00:36:55.748Z,18.53
2018-08-25T00:39:25.044Z,17.20
2018-08-25T00:41:54.373Z,18.23
2018-08-25T00:44:23.772Z,19.20
2018-08-25T00:46:52.851Z,19.00
2018-08-25T00:49:22.095Z,18.57
2018-08-25T00:51:51.293Z,20.00
2018-08-25T00:54:20.445Z,19.50
2018-08-25T00:56:49.756Z,20.07
2018-08-25T00:59:18.885Z,20.10
2018-08-25T01:01:48.083Z,20.03
2018-08-25T01:04:17.277Z,18.40
2018-08-25T01:06:46.467Z,18.93
2018-08-25T01:09:15.733Z,17.47
2018-08-25T01:11:45.143Z,17.20
2018-08-25T01:14:14.336Z,16.67
2018-08-25T01:16:43.473Z,14.07
2018-08-25T01:19:12.845Z,14.10
2018-08-25T01:21:41.856Z,16.10
2018-08-25T01:24:10.952Z,14.87
2018-08-25T01:26:40.307Z,13.47
2018-08-25T01:29:09.491Z,13.97
2018-08-25T01:31:38.639Z,13.00
2018-08-25T01:34:07.680Z,12.80
2018-08-25T01:36:37.732Z,13.23
2018-08-25T01:39:09.219Z,12.93
2018-08-25T01:41:38.675Z,13.30
2018-08-25T01:44:07.597Z,11.97
2018-08-25T01:46:36.809Z,12.03
2018-08-25T01:49:06.205Z,12.33
2018-08-25T01:51:35.500Z,12.03
2018-08-25T01:54:04.680Z,12.60
2018-08-25T01:56:34.057Z,11.23
2018-08-25T01:59:03.275Z,11.43
2018-08-25T02:01:33.244Z,11.70
2018-08-25T02:04:02.404Z,11.53
2018-08-25T02:06:31.659Z,12.10
2018-08-25T02:09:01.106Z,12.43
2018-08-25T02:11:31.296Z,11.33
2018-08-25T02:14:00.612Z,11.23
2018-08-25T02:16:30.160Z,10.07
2018-08-25T02:18:59.630Z,12.07
2018-08-25T02:21:28.796Z,13.13
2018-08-25T02:23:58.315Z,11.27
2018-08-25T02:26:27.505Z,11.30
2018-08-25T02:28:56.831Z,13.27
2018-08-25T02:31:26.219Z,12.37
2018-08-25T02:33:55.427Z,11.87
2018-08-25T02:36:24.747Z,11.90
2018-08-25T02:38:53.931Z,13.90
2018-08-25T02:41:23.032Z,10.50
2018-08-25T02:43:52.121Z,9.67
2018-08-25T02:46:21.350Z,10.10
2018-08-25T02:48:50.458Z,9.77
2018-08-25T02:51:19.741Z,10.30
2018-08-25T02:53:48.887Z,9.07
2018-08-25T02:56:18.099Z,9.63
2018-08-25T02:58:47.388Z,9.37
2018-08-25T03:01:16.783Z,9.10
2018-08-25T03:03:46.254Z,9.43
2018-08-25T03:06:15.397Z,10.40
2018-08-25T03:08:44.833Z,9.13
2018-08-25T03:11:14.312Z,10.13
2018-08-25T03:13:43.654Z,8.60
2018-08-25T03:16:12.947Z,10.43
2018-08-25T03:18:42.353Z,10.00
2018-08-25T03:21:11.557Z,13.57
2018-08-25T03:23:41.035Z,10.33
2018-08-25T03:26:10.307Z,10.23
2018-08-25T03:28:39.652Z,10.67
2018-08-25T03:31:08.658Z,9.97
2018-08-25T03:33:38.044Z,9.73
2018-08-25T03:36:07.192Z,10.10
2018-08-25T03:38:37.293Z,9.80
2018-08-25T03:41:07.036Z,9.70
2018-08-25T03:43:36.203Z,9.83
2018-08-25T03:46:05.356Z,10.20
2018-08-25T03:48:34.812Z,9.83
2018-08-25T03:51:04.065Z,9.77
2018-08-25T03:53:33.506Z,11.73
2018-08-25T03:56:02.744Z,11.10
2018-08-25T03:58:31.861Z,9.87
2018-08-25T04:01:01.166Z,9.03
2018-08-25T04:03:30.249Z,9.63
2018-08-25T04:05:59.499Z,10.20
2018-08-25T04:08:28.705Z,9.23
2018-08-25T04:10:57.891Z,10.30
2018-08-25T04:13:27.061Z,9.37
2018-08-25T04:15:56.229Z,9.87
2018-08-25T04:18:25.313Z,11.27
2018-08-25T04:20:54.476Z,13.67
2018-08-25T04:23:23.777Z,19.07
2018-08-25T04:25:53.344Z,17.83
2018-08-25T04:28:22.480Z,14.17
2018-08-25T04:30:51.516Z,13.20
2018-08-25T04:33:20.640Z,11.30
2018-08-25T04:35:49.864Z,10.80
2018-08-25T04:38:19.248Z,11.73
2018-08-25T04:40:48.310Z,11.80
2018-08-25T04:43:17.484Z,11.93
2018-08-25T04:45:46.739Z,11.87
2018-08-25T04:48:15.866Z,13.30
2018-08-25T04:50:44.892Z,11.77
2018-08-25T04:53:14.185Z,12.83
2018-08-25T04:55:43.289Z,12.30
2018-08-25T04:58:12.525Z,12.37
2018-08-25T05:00:41.928Z,15.20
2018-08-25T05:03:11.131Z,12.63
2018-08-25T05:05:40.295Z,13.07
2018-08-25T05:08:09.769Z,12.47
2018-08-25T05:10:38.880Z,11.87
2018-08-25T05:13:08.160Z,12.30
2018-08-25T05:15:37.400Z,13.13
2018-08-25T05:18:06.978Z,13.63
2018-08-25T05:20:36.443Z,13.37
2018-08-25T05:23:05.694Z,16.17
2018-08-25T05:25:35.022Z,19.13
2018-08-25T05:28:04.231Z,22.40
2018-08-25T05:30:33.542Z,22.20
2018-08-25T05:33:02.597Z,23.27
2018-08-25T05:35:31.988Z,27.27
2018-08-25T05:38:01.205Z,30.07
2018-08-25T05:40:30.756Z,28.40
2018-08-25T05:42:59.969Z,29.23
2018-08-25T05:45:29.647Z,28.60
2018-08-25T05:47:58.791Z,20.43
2018-08-25T05:50:28.036Z,23.73
2018-08-25T05:52:57.289Z,23.20
2018-08-25T05:55:26.844Z,21.47
2018-08-25T05:57:56.498Z,22.07
2018-08-25T06:00:26.056Z,23.93
2018-08-25T06:02:55.420Z,25.97
2018-08-25T06:05:24.881Z,23.47
2018-08-25T06:07:55.001Z,28.27
2018-08-25T06:10:24.339Z,25.50
2018-08-25T06:12:55.547Z,26.93
2018-08-25T06:15:24.919Z,27.23
2018-08-25T06:17:54.606Z,29.83
2018-08-25T06:20:24.400Z,24.07
2018-08-25T06:22:53.638Z,17.10
2018-08-25T06:25:25.627Z,13.57
2018-08-25T06:27:54.765Z,12.53
2018-08-25T06:30:24.867Z,15.00
2018-08-25T06:32:54.183Z,18.07
2018-08-25T06:35:25.671Z,22.73
2018-08-25T06:37:55.219Z,20.67
2018-08-25T06:40:26.041Z,21.87
2018-08-25T06:42:56.003Z,25.30
2018-08-25T06:45:27.965Z,24.00
2018-08-25T06:47:57.625Z,19.20
2018-08-25T06:50:27.107Z,20.37
2018-08-25T06:52:56.380Z,18.47
2018-08-25T06:55:26.288Z,15.83
2018-08-25T06:57:55.557Z,9.80
2018-08-25T07:00:25.077Z,13.40
2018-08-25T07:02:54.942Z,12.33
2018-08-25T07:05:24.279Z,15.37
2018-08-25T07:07:55.079Z,15.43
2018-08-25T07:10:25.301Z,11.80
2018-08-25T07:12:55.251Z,12.60
2018-08-25T07:15:30.557Z,16.20
2018-08-25T07:17:59.848Z,17.87
2018-08-25T07:20:33.822Z,19.53
2018-08-25T07:23:03.540Z,20.00
2018-08-25T07:25:33.805Z,18.90
2018-08-25T07:28:07.636Z,16.97
2018-08-25T07:30:38.691Z,19.20
2018-08-25T07:33:08.064Z,14.47
2018-08-25T07:35:39.330Z,13.03
2018-08-25T07:38:10.826Z,15.10
2018-08-25T07:40:40.487Z,28.13
2018-08-25T07:43:10.830Z,18.20
2018-08-25T07:45:49.215Z,20.30
2018-08-25T07:48:21.554Z,22.27
2018-08-25T07:50:51.596Z,23.03
2018-08-25T07:53:23.379Z,5.47
2018-08-25T07:55:54.066Z,3.03
2018-08-25T07:58:26.653Z,2.60
2018-08-25T08:01:01.919Z,2.60
2018-08-25T08:03:31.115Z,3.97
2018-08-25T08:06:00.543Z,12.57
2018-08-25T08:08:31.501Z,8.77
2018-08-25T08:11:00.898Z,4.40
2018-08-25T08:13:31.315Z,5.73
2018-08-25T08:16:00.508Z,4.93
2018-08-25T08:18:30.000Z,6.10
2018-08-25T08:21:02.351Z,8.30
2018-08-25T08:23:34.074Z,22.27
2018-08-25T08:26:04.996Z,25.67
2018-08-25T08:28:35.077Z,12.43
2018-08-25T08:31:04.780Z,9.97
2018-08-25T08:33:34.341Z,12.70
2018-08-25T08:36:03.547Z,5.73
2018-08-25T08:38:36.120Z,5.27
2018-08-25T08:41:05.236Z,4.40
2018-08-25T08:43:34.497Z,4.43
2018-08-25T08:46:06.309Z,3.60
2018-08-25T08:48:35.566Z,3.40
2018-08-25T08:51:07.636Z,3.60
2018-08-25T08:53:37.527Z,4.40
2018-08-25T08:56:07.020Z,3.97
2018-08-25T08:58:36.340Z,4.53
2018-08-25T09:01:05.787Z,4.00
2018-08-25T09:03:35.038Z,5.73
2018-08-25T09:06:04.287Z,7.33
2018-08-25T09:08:33.832Z,7.07
2018-08-25T09:11:03.346Z,4.37
2018-08-25T09:13:32.653Z,4.20
2018-08-25T09:16:02.004Z,5.20
2018-08-25T09:18:31.142Z,4.13
2018-08-25T09:21:00.273Z,4.37
2018-08-25T09:23:30.091Z,3.10
2018-08-25T09:25:59.456Z,4.20
2018-08-25T09:28:28.972Z,3.57
2018-08-25T09:30:58.164Z,4.00
2018-08-25T09:33:27.499Z,4.13
2018-08-25T09:35:56.871Z,4.87
2018-08-25T09:38:26.425Z,4.77
2018-08-25T09:40:55.823Z,4.27
2018-08-25T09:43:25.216Z,5.03
2018-08-25T09:45:54.661Z,3.63
2018-08-25T09:48:23.869Z,3.97
2018-08-25T09:50:53.443Z,3.43
2018-08-25T09:53:22.819Z,3.33
2018-08-25T09:55:52.795Z,4.77
2018-08-25T09:58:22.584Z,4.37
2018-08-25T10:02:01.070Z,4.43
2018-08-25T10:04:31.196Z,4.60
2018-08-25T10:07:00.450Z,5.00
2018-08-25T10:09:29.804Z,5.53
2018-08-25T10:11:58.975Z,4.40
2018-08-25T10:14:28.433Z,4.73
2018-08-25T10:16:58.148Z,4.77
2018-08-25T10:19:27.561Z,4.10
2018-08-25T10:21:56.938Z,3.77
2018-08-25T10:24:26.253Z,4.30
2018-08-25T10:26:57.105Z,4.90
2018-08-25T10:29:26.329Z,4.53
2018-08-25T10:31:55.647Z,4.83
2018-08-25T10:34:26.217Z,4.57
2018-08-25T10:36:55.272Z,4.40
2018-08-25T10:39:24.481Z,6.30
2018-08-25T10:41:54.169Z,7.73
2018-08-25T10:44:25.443Z,5.80
2018-08-25T10:46:55.250Z,5.60
2018-08-25T10:49:25.805Z,7.43
2018-08-25T10:51:55.336Z,5.33
2018-08-25T10:54:26.241Z,4.63
2018-08-25T10:56:59.914Z,5.13
2018-08-25T10:59:32.171Z,5.40
2018-08-25T11:02:03.762Z,4.13
2018-08-25T11:04:35.894Z,4.57
2018-08-25T11:07:05.420Z,5.50
2018-08-25T11:09:34.977Z,4.37
2018-08-25T11:12:04.414Z,4.40
2018-08-25T11:14:34.216Z,5.67
2018-08-25T11:17:03.538Z,4.60
2018-08-25T11:19:33.102Z,5.00
2018-08-25T11:22:02.469Z,4.93
2018-08-25T11:24:32.102Z,5.03
2018-08-25T11:27:02.381Z,4.73
2018-08-25T11:29:32.370Z,4.60
2018-08-25T11:32:01.775Z,3.93
2018-08-25T11:34:34.549Z,4.17
2018-08-25T11:37:04.001Z,4.20
2018-08-25T11:39:33.663Z,3.87
2018-08-25T11:42:03.363Z,4.00
2018-08-25T11:44:32.828Z,4.57
2018-08-25T11:47:06.401Z,4.63
2018-08-25T11:49:35.762Z,3.83
2018-08-25T11:52:04.962Z,4.30
2018-08-25T11:54:34.328Z,5.77
2018-08-25T11:57:03.475Z,4.87
2018-08-25T11:59:32.321Z,4.57
2018-08-25T12:02:01.798Z,4.60
2018-08-25T12:04:30.976Z,4.13
2018-08-25T12:07:00.328Z,4.70
2018-08-25T12:09:31.215Z,8.83
2018-08-25T12:12:02.073Z,8.30
2018-08-25T12:14:31.256Z,5.80
2018-08-25T12:17:03.002Z,5.63
2018-08-25T12:19:32.966Z,6.07
2018-08-25T12:22:02.264Z,6.07
2018-08-25T12:24:31.784Z,6.43
2018-08-25T12:27:02.168Z,6.30
2018-08-25T12:29:31.618Z,6.17
2018-08-25T12:32:00.757Z,4.80
2018-08-25T12:34:32.107Z,5.90
2018-08-25T12:37:06.416Z,4.97
2018-08-25T12:39:39.806Z,6.33
2018-08-25T12:42:08.988Z,4.93
2018-08-25T12:44:38.299Z,5.23
2018-08-25T12:47:10.324Z,6.50
2018-08-25T12:49:40.227Z,7.07
2018-08-25T12:52:10.340Z,7.30
2018-08-25T12:54:40.141Z,5.17
2018-08-25T12:57:09.677Z,7.10
2018-08-25T12:59:43.847Z,5.20
2018-08-25T13:02:12.881Z,5.87
2018-08-25T13:04:47.140Z,6.40
2018-08-25T13:07:17.426Z,6.47
2018-08-25T13:09:50.104Z,4.53
2018-08-25T13:12:26.021Z,3.77
2018-08-25T13:14:59.297Z,5.03
2018-08-25T13:17:30.854Z,4.27
2018-08-25T13:20:02.742Z,5.78
2018-08-25T13:22:35.107Z,4.93
2018-08-25T13:25:04.846Z,4.20
2018-08-25T13:27:38.658Z,4.97
2018-08-25T13:30:09.164Z,5.37
2018-08-25T13:32:40.152Z,4.40
2018-08-25T13:35:10.381Z,5.90
2018-08-25T13:37:40.342Z,5.92
2018-08-25T13:40:10.183Z,7.23
2018-08-25T13:42:40.347Z,6.37
2018-08-25T13:45:12.333Z,7.33
2018-08-25T13:47:44.906Z,5.60
2018-08-25T13:50:18.696Z,3.83
2018-08-25T13:52:52.456Z,3.43
2018-08-25T13:55:23.965Z,3.62
2018-08-25T13:58:06.616Z,3.97
2018-08-25T14:00:39.946Z,4.50
2018-08-25T14:03:10.892Z,4.57
2018-08-25T14:05:42.280Z,4.63
2018-08-25T14:08:13.267Z,2.90
2018-08-25T14:10:50.960Z,2.90
2018-08-25T14:13:22.891Z,2.90
2018-08-25T14:15:56.491Z,2.90
2018-08-25T14:18:29.934Z,3.07
2018-08-25T14:21:04.187Z,2.77
2018-08-25T14:23:37.194Z,3.20
2018-08-25T14:26:08.437Z,2.33
2018-08-25T14:28:39.623Z,2.30
2018-08-25T14:31:12.046Z,2.50
2018-08-25T14:33:42.028Z,3.23
2018-08-25T14:36:13.350Z,3.13
2018-08-25T14:38:51.253Z,2.83
2018-08-25T14:41:22.298Z,3.93
2018-08-25T14:43:51.447Z,3.17
2018-08-25T14:46:20.911Z,3.13
2018-08-25T14:48:50.538Z,3.77
2018-08-25T14:51:20.177Z,3.00
2018-08-25T14:53:49.654Z,3.00
2018-08-25T14:56:18.870Z,3.17
2018-08-25T14:58:48.591Z,4.10
2018-08-25T15:01:18.011Z,3.33
2018-08-25T15:03:47.516Z,3.80
2018-08-25T15:06:17.104Z,3.98
2018-08-25T15:08:46.367Z,4.35
2018-08-25T15:11:15.609Z,4.00
2018-08-25T15:13:45.069Z,3.60
2018-08-25T15:16:14.151Z,5.25
2018-08-25T15:18:43.619Z,3.67
2018-08-25T15:21:13.012Z,4.00
2018-08-25T15:23:42.361Z,5.17
2018-08-25T15:26:11.748Z,3.87
2018-08-25T15:28:41.215Z,5.33
2018-08-25T15:31:10.548Z,3.53
2018-08-25T15:33:40.090Z,3.83
2018-08-25T15:36:09.419Z,4.00
2018-08-25T15:38:38.636Z,4.45
2018-08-25T15:41:07.753Z,4.85
2018-08-25T15:43:37.265Z,4.70
2018-08-25T15:46:06.339Z,3.75
2018-08-25T15:48:35.557Z,3.90
2018-08-25T15:51:04.872Z,3.90
2018-08-25T15:53:34.285Z,3.85
2018-08-25T15:56:03.467Z,5.37
2018-08-25T15:58:32.701Z,4.67
2018-08-25T16:01:02.283Z,4.28
2018-08-25T16:03:31.641Z,3.80
2018-08-25T16:06:00.925Z,4.72
2018-08-25T16:08:30.451Z,5.03
2018-08-25T16:10:59.738Z,5.03
2018-08-25T16:13:29.195Z,4.35
2018-08-25T16:15:58.480Z,6.50
2018-08-25T16:18:27.696Z,5.50
2018-08-25T16:20:56.978Z,6.50
2018-08-25T16:23:26.188Z,4.73
2018-08-25T16:25:55.638Z,5.63
2018-08-25T16:28:25.117Z,10.70
2018-08-25T16:30:54.388Z,14.70
2018-08-25T16:33:23.801Z,11.07
2018-08-25T16:35:53.319Z,10.07
2018-08-25T16:38:22.322Z,12.73
2018-08-25T16:40:51.938Z,12.77
2018-08-25T16:43:21.231Z,11.07
2018-08-25T16:45:51.167Z,8.70
2018-08-25T16:48:20.273Z,13.53
2018-08-25T16:50:49.383Z,15.80
2018-08-25T16:56:01.021Z,20.87
2018-08-25T16:58:32.226Z,26.80
2018-08-25T17:01:04.077Z,22.60
2018-08-25T17:03:33.806Z,26.57
2018-08-25T17:06:02.970Z,35.47
2018-08-25T17:08:33.091Z,25.13
2018-08-25T17:11:02.541Z,20.70
2018-08-25T17:13:31.704Z,18.60
2018-08-25T17:16:02.074Z,19.60
2018-08-25T17:18:31.330Z,18.37
2018-08-25T17:21:01.024Z,24.17
2018-08-25T17:23:30.872Z,21.03
2018-08-25T17:26:00.470Z,22.53
2018-08-25T17:28:30.550Z,28.50
2018-08-25T17:31:00.289Z,24.77
2018-08-25T17:33:29.342Z,23.73
2018-08-25T17:35:58.874Z,23.87
2018-08-25T17:38:28.768Z,25.87
2018-08-25T17:40:58.172Z,21.27
2018-08-25T17:43:27.594Z,25.77
2018-08-25T17:45:57.120Z,34.87
2018-08-25T17:48:26.436Z,17.40
2018-08-25T17:50:56.026Z,17.67
2018-08-25T17:53:25.628Z,21.43
2018-08-25T17:55:55.120Z,15.83
2018-08-25T17:58:24.337Z,17.13
2018-08-25T18:00:53.677Z,16.30
2018-08-25T18:03:23.006Z,15.57
2018-08-25T18:05:52.163Z,15.90
2018-08-25T18:08:21.333Z,25.77
2018-08-25T18:10:51.678Z,23.47
2018-08-25T18:13:21.636Z,18.70
2018-08-25T18:15:50.761Z,19.83
2018-08-25T18:18:19.998Z,18.00
2018-08-25T18:20:49.473Z,19.33
2018-08-25T18:23:20.596Z,17.83
2018-08-25T18:25:51.053Z,16.27
2018-08-25T18:28:20.526Z,19.73
2018-08-25T18:30:49.873Z,12.87
2018-08-25T18:33:19.377Z,17.00
2018-08-25T18:35:48.832Z,14.20
2018-08-25T18:38:18.206Z,21.63
2018-08-25T18:40:48.526Z,18.63
2018-08-25T18:43:18.294Z,17.80
2018-08-25T18:45:47.844Z,15.90
2018-08-25T18:48:17.185Z,17.13
2018-08-25T18:50:46.210Z,29.87
2018-08-25T18:53:15.753Z,33.87
2018-08-25T18:55:45.537Z,28.03
2018-08-25T18:58:15.180Z,29.17
2018-08-25T19:00:44.445Z,26.53
2018-08-25T19:03:13.853Z,25.47
2018-08-25T19:05:43.443Z,31.50
2018-08-25T19:08:13.427Z,28.40
2018-08-25T19:10:42.617Z,44.03
2018-08-25T19:13:11.890Z,53.93
2018-08-25T19:15:41.089Z,47.70
2018-08-25T19:18:10.356Z,38.07
2018-08-25T19:20:40.577Z,36.03
2018-08-25T19:23:09.812Z,35.97
2018-08-25T19:25:39.292Z,28.00
2018-08-25T19:28:08.973Z,30.80
2018-08-25T19:30:39.808Z,22.77
2018-08-25T19:33:10.438Z,22.50
2018-08-25T19:35:39.879Z,19.40
2018-08-25T19:38:09.618Z,15.93
2018-08-25T19:40:39.601Z,15.40
2018-08-25T19:43:09.840Z,15.17
2018-08-25T19:45:39.822Z,11.87
2018-08-25T19:48:09.353Z,14.67
2018-08-25T19:50:39.687Z,16.23
2018-08-25T19:53:08.781Z,17.30
2018-08-25T19:55:42.507Z,12.80
2018-08-25T19:58:15.074Z,10.77
2018-08-25T20:00:44.274Z,15.30
2018-08-25T20:03:14.509Z,13.70
2018-08-25T20:05:43.638Z,14.63
2018-08-25T20:08:12.778Z,14.70
2018-08-25T20:10:42.236Z,17.13
2018-08-25T20:13:11.575Z,15.57
2018-08-25T20:15:41.199Z,22.03
2018-08-25T20:18:11.127Z,15.67
2018-08-25T20:20:40.568Z,13.57
2018-08-25T20:23:09.945Z,12.53
2018-08-25T20:25:39.398Z,14.63
2018-08-25T20:28:08.586Z,14.30
2018-08-25T20:30:38.087Z,13.43
2018-08-25T20:33:07.466Z,15.97
2018-08-25T20:35:37.240Z,13.10
2018-08-25T20:38:07.051Z,16.10
2018-08-25T20:40:36.228Z,14.47
2018-08-25T20:43:05.601Z,13.57
2018-08-25T20:45:34.755Z,12.40
2018-08-25T20:48:04.022Z,10.90
2018-08-25T20:50:33.317Z,11.47
2018-08-25T20:53:02.813Z,10.43
2018-08-25T20:55:32.073Z,11.37
2018-08-25T20:58:01.159Z,9.97
2018-08-25T21:00:31.594Z,11.77
2018-08-25T21:03:01.227Z,13.93
2018-08-25T21:05:31.232Z,12.77
2018-08-25T21:08:00.603Z,15.00
2018-08-25T21:10:30.767Z,12.10
2018-08-25T21:12:59.967Z,12.73
2018-08-25T21:15:29.586Z,11.90
2018-08-25T21:17:59.267Z,14.30
2018-08-25T21:20:28.578Z,14.13
2018-08-25T21:22:58.187Z,13.63
2018-08-25T21:25:27.386Z,13.73
2018-08-25T21:27:56.799Z,12.90
2018-08-25T21:30:26.223Z,15.87
2018-08-25T21:32:55.724Z,11.27
2018-08-25T21:35:25.106Z,12.13
2018-08-25T21:37:54.660Z,12.37
2018-08-25T21:40:23.753Z,13.73
2018-08-25T21:42:52.849Z,12.53
2018-08-25T21:45:22.454Z,14.30
2018-08-25T21:47:51.869Z,14.70
2018-08-25T21:50:21.849Z,15.93
2018-08-25T21:52:51.332Z,13.27
2018-08-25T21:55:20.532Z,14.00
2018-08-25T21:57:49.769Z,18.00
2018-08-25T22:00:19.387Z,14.13
2018-08-25T22:02:48.589Z,11.90
2018-08-25T22:05:19.248Z,13.30
2018-08-25T22:07:49.597Z,12.13
2018-08-25T22:10:19.300Z,15.40
2018-08-25T22:12:48.746Z,10.63
2018-08-25T22:15:18.288Z,13.70
2018-08-25T22:17:47.858Z,10.00
2018-08-25T22:20:17.027Z,10.43
2018-08-25T22:22:46.553Z,10.00
2018-08-25T22:25:15.865Z,14.80
2018-08-25T22:27:45.086Z,10.73
2018-08-25T22:30:14.307Z,10.53
2018-08-25T22:32:43.468Z,9.13
2018-08-25T22:35:13.301Z,9.07
2018-08-25T22:37:42.888Z,11.07
2018-08-25T22:40:12.057Z,10.07
2018-08-25T22:42:41.158Z,9.90
2018-08-25T22:45:10.568Z,12.47
2018-08-25T22:47:40.089Z,15.17
2018-08-25T22:50:09.272Z,17.50
2018-08-25T22:52:43.839Z,13.67
2018-08-25T22:55:13.192Z,11.83
2018-08-25T22:57:42.784Z,11.70
2018-08-25T23:00:12.356Z,9.10
2018-08-25T23:02:41.906Z,8.80
2018-08-25T23:05:11.126Z,8.80
2018-08-25T23:07:40.303Z,6.73
2018-08-25T23:10:09.512Z,8.53
2018-08-25T23:12:38.849Z,9.30
2018-08-25T23:15:08.021Z,7.90
2018-08-25T23:17:37.872Z,7.20
2018-08-25T23:20:07.216Z,9.80
2018-08-25T23:22:36.360Z,8.30
2018-08-25T23:25:05.529Z,10.93
2018-08-25T23:27:34.814Z,9.80
2018-08-25T23:30:04.004Z,8.70
2018-08-25T23:32:33.407Z,7.70
2018-08-25T23:35:02.577Z,11.27
2018-08-25T23:37:32.341Z,10.57
2018-08-25T23:40:01.946Z,10.37
2018-08-25T23:42:31.208Z,10.13
2018-08-25T23:45:00.713Z,8.77
2018-08-25T23:47:30.373Z,9.10
2018-08-25T23:49:59.672Z,8.73
2018-08-25T23:52:33.719Z,7.10
2018-08-25T23:55:03.644Z,8.90
2018-08-25T23:57:32.963Z,9.30
